Vinh Hung — XVFL — position and weather

sailwx.info

Track history (hours):
 
Tides and Currents Weather Stations Pressure Air Temp Water Temp Dewpoint Dewpoint Depression Visibility Wind Speed Wind Dir Waves Ship Positions

Vinh Hung

Last reported at 2017-Oct-30 05:26 UTC. Time now 2017-Nov-24 13:13 UTC.
Position N 20°53' E 110°48'.
Warning: this ship's position is 25 days out of date.

Length 103 m; draft 7.2 m.

Type: Ship (hazmat cat A). MMSI: 574206000.

Date/timePositionNaut miles runAvg speedWind from/ knotsBaromVisibWave heightAir tempDewpointWater temp
2017-Oct-30 05:26N 20°53' E 110°48'4 8.7
2017-Oct-30 05:00N 20°56' E 110°46'5 9.2
2017-Oct-30 04:25N 21°02' E 110°44'4 8.8
2017-Oct-30 03:59N 21°03' E 110°40'510.3
2017-Oct-30 03:30N 21°04' E 110°35'510.0
2017-Oct-30 03:00N 21°05' E 110°30'4 7.1
2017-Oct-30 02:30N 21°06' E 110°26'5 9.5
2017-Oct-30 02:01N 21°11' E 110°25'0 0.3
2017-Oct-30 01:19N 21°11' E 110°24'0 0.0
2017-Oct-29 19:16N 21°11' E 110°24'0 0.0
2017-Oct-29 17:52N 21°11' E 110°24'0 0.0
2017-Oct-29 17:22N 21°11' E 110°24'0 0.0
2017-Oct-29 16:19N 21°11' E 110°24'0 0.0
2017-Oct-29 15:49N 21°11' E 110°24'0 0.0
2017-Oct-29 15:25N 21°11' E 110°24'0 0.0
2017-Oct-29 14:55N 21°11' E 110°24'0 0.0
2017-Oct-29 14:13N 21°11' E 110°24'0 0.0
2017-Oct-29 13:43N 21°11' E 110°24'0 0.0
2017-Oct-29 13:25N 21°11' E 110°24'0 0.0
2017-Oct-29 12:55N 21°11' E 110°24'0 0.0
2017-Oct-29 12:19N 21°11' E 110°24'0 0.0
2017-Oct-29 11:46N 21°11' E 110°24'0 0.0
2017-Oct-29 11:28N 21°11' E 110°24'0 0.0
2017-Oct-29 10:55N 21°11' E 110°24'0 0.0
2017-Oct-29 10:25N 21°11' E 110°24'0 0.0
2017-Oct-29 09:58N 21°11' E 110°24'0 0.0
2017-Oct-29 09:19N 21°11' E 110°24'0 0.0
2017-Oct-29 08:58N 21°11' E 110°24'0 0.0
2017-Oct-29 08:22N 21°11' E 110°24'0 0.0
2017-Oct-29 07:58N 21°11' E 110°24'0 0.0
2017-Oct-29 07:19N 21°11' E 110°24'0 0.0
2017-Oct-29 06:58N 21°11' E 110°24'0 0.0
2017-Oct-29 06:28N 21°11' E 110°24'0 0.0
2017-Oct-29 05:58N 21°11' E 110°24'0 0.0
2017-Oct-29 05:28N 21°11' E 110°24'0 0.0
2017-Oct-29 04:55N 21°11' E 110°24'0 0.0
2017-Oct-29 04:25N 21°11' E 110°24'0 0.0
2017-Oct-29 03:46N 21°11' E 110°24'0 0.0
2017-Oct-28 18:55N 21°11' E 110°24'0 0.0
2017-Oct-28 18:22N 21°11' E 110°24'0 0.0
2017-Oct-28 17:55N 21°11' E 110°24'0 0.0
2017-Oct-28 17:25N 21°11' E 110°24'0 0.0
2017-Oct-28 16:58N 21°11' E 110°24'0 0.0
2017-Oct-28 15:40N 21°11' E 110°24'0 0.0
2017-Oct-28 15:25N 21°11' E 110°24'0 0.0
2017-Oct-28 14:34N 21°11' E 110°24'0 0.0
2017-Oct-28 14:22N 21°11' E 110°24'0 0.0
2017-Oct-28 13:43N 21°11' E 110°24'0 0.0
2017-Oct-28 13:25N 21°11' E 110°24'0 0.0
2017-Oct-28 12:55N 21°11' E 110°24'0 0.0
2017-Oct-28 12:25N 21°11' E 110°24'0 0.0
2017-Oct-28 10:58N 21°11' E 110°24'0 0.0
2017-Oct-28 10:16N 21°11' E 110°24'0 0.0
2017-Oct-28 09:58N 21°11' E 110°24'0 0.0
2017-Oct-28 06:10N 21°11' E 110°24'0 0.0
2017-Oct-28 05:52N 21°11' E 110°24'0 0.0
2017-Oct-28 05:25N 21°11' E 110°24'0 0.0
2017-Oct-28 04:49N 21°11' E 110°24'0 0.0
2017-Oct-28 04:19N 21°11' E 110°24'0 0.0
2017-Oct-28 01:01N 21°11' E 110°24'0 0.0
2017-Oct-28 00:49N 21°11' E 110°24'0 0.0
2017-Oct-28 00:25N 21°11' E 110°24'0 0.0
2017-Oct-27 23:59N 21°11' E 110°24'0 0.2
2017-Oct-27 23:29N 21°11' E 110°24'1 2.8
2017-Oct-27 23:00N 21°09' E 110°25'4 7.0
2017-Oct-27 22:30N 21°06' E 110°26'4 7.8
2017-Oct-27 22:00N 21°05' E 110°30'3 6.1
2017-Oct-27 21:30N 21°04' E 110°34'510.4
2017-Oct-27 21:00N 21°03' E 110°39'510.6
2017-Oct-27 20:30N 21°02' E 110°45'510.2
2017-Oct-27 19:59N 21°03' E 110°50'0 0.0
2017-Oct-27 06:50N 21°03' E 110°50'0 0.0
2017-Oct-27 04:41N 21°03' E 110°50'0 0.0
2017-Oct-27 03:14N 21°03' E 110°50'0 0.0
2017-Oct-27 02:50N 21°03' E 110°50'0 0.0
2017-Oct-27 02:29N 21°03' E 110°50'0 0.0
2017-Oct-27 01:53N 21°03' E 110°50'0 0.0
2017-Oct-27 00:44N 21°03' E 110°50'0 0.2
2017-Oct-27 00:26N 21°03' E 110°50'0 0.0
2017-Oct-26 23:59N 21°03' E 110°50'0 0.8
2017-Oct-26 23:30N 21°03' E 110°51'  
Track history (hours):
 
Tides and Currents Weather Stations Pressure Air Temp Water Temp Dewpoint Dewpoint Depression Visibility Wind Speed Wind Dir Waves Ship Positions

Vinh Hung

Last reported at 2017-Oct-30 05:26 UTC. Time now 2017-Nov-24 13:13 UTC.
Position N 20°53' E 110°48'.
Warning: this ship's position is 25 days out of date.

Length 103 m; draft 7.2 m.

Type: Ship (hazmat cat A). MMSI: 574206000.

Date/timePositionNaut miles runAvg speedWind from/ knotsBaromVisibWave heightAir tempDewpointWater temp
2017-Oct-30 05:26N 20°53' E 110°48'4 8.7
2017-Oct-30 05:00N 20°56' E 110°46'5 9.2
2017-Oct-30 04:25N 21°02' E 110°44'4 8.8
2017-Oct-30 03:59N 21°03' E 110°40'510.3
2017-Oct-30 03:30N 21°04' E 110°35'510.0
2017-Oct-30 03:00N 21°05' E 110°30'4 7.1
2017-Oct-30 02:30N 21°06' E 110°26'5 9.5
2017-Oct-30 02:01N 21°11' E 110°25'0 0.3
2017-Oct-30 01:19N 21°11' E 110°24'0 0.0
2017-Oct-29 19:16N 21°11' E 110°24'0 0.0
2017-Oct-29 17:52N 21°11' E 110°24'0 0.0
2017-Oct-29 17:22N 21°11' E 110°24'0 0.0
2017-Oct-29 16:19N 21°11' E 110°24'0 0.0
2017-Oct-29 15:49N 21°11' E 110°24'0 0.0
2017-Oct-29 15:25N 21°11' E 110°24'0 0.0
2017-Oct-29 14:55N 21°11' E 110°24'0 0.0
2017-Oct-29 14:13N 21°11' E 110°24'0 0.0
2017-Oct-29 13:43N 21°11' E 110°24'0 0.0
2017-Oct-29 13:25N 21°11' E 110°24'0 0.0
2017-Oct-29 12:55N 21°11' E 110°24'0 0.0
2017-Oct-29 12:19N 21°11' E 110°24'0 0.0
2017-Oct-29 11:46N 21°11' E 110°24'0 0.0
2017-Oct-29 11:28N 21°11' E 110°24'0 0.0
2017-Oct-29 10:55N 21°11' E 110°24'0 0.0
2017-Oct-29 10:25N 21°11' E 110°24'0 0.0
2017-Oct-29 09:58N 21°11' E 110°24'0 0.0
2017-Oct-29 09:19N 21°11' E 110°24'0 0.0
2017-Oct-29 08:58N 21°11' E 110°24'0 0.0
2017-Oct-29 08:22N 21°11' E 110°24'0 0.0
2017-Oct-29 07:58N 21°11' E 110°24'0 0.0
2017-Oct-29 07:19N 21°11' E 110°24'0 0.0
2017-Oct-29 06:58N 21°11' E 110°24'0 0.0
2017-Oct-29 06:28N 21°11' E 110°24'0 0.0
2017-Oct-29 05:58N 21°11' E 110°24'0 0.0
2017-Oct-29 05:28N 21°11' E 110°24'0 0.0
2017-Oct-29 04:55N 21°11' E 110°24'0 0.0
2017-Oct-29 04:25N 21°11' E 110°24'0 0.0
2017-Oct-29 03:46N 21°11' E 110°24'0 0.0
2017-Oct-28 18:55N 21°11' E 110°24'0 0.0
2017-Oct-28 18:22N 21°11' E 110°24'0 0.0
2017-Oct-28 17:55N 21°11' E 110°24'0 0.0
2017-Oct-28 17:25N 21°11' E 110°24'0 0.0
2017-Oct-28 16:58N 21°11' E 110°24'0 0.0
2017-Oct-28 15:40N 21°11' E 110°24'0 0.0
2017-Oct-28 15:25N 21°11' E 110°24'0 0.0
2017-Oct-28 14:34N 21°11' E 110°24'0 0.0
2017-Oct-28 14:22N 21°11' E 110°24'0 0.0
2017-Oct-28 13:43N 21°11' E 110°24'0 0.0
2017-Oct-28 13:25N 21°11' E 110°24'0 0.0
2017-Oct-28 12:55N 21°11' E 110°24'0 0.0
2017-Oct-28 12:25N 21°11' E 110°24'0 0.0
2017-Oct-28 10:58N 21°11' E 110°24'0 0.0
2017-Oct-28 10:16N 21°11' E 110°24'0 0.0
2017-Oct-28 09:58N 21°11' E 110°24'0 0.0
2017-Oct-28 06:10N 21°11' E 110°24'0 0.0
2017-Oct-28 05:52N 21°11' E 110°24'0 0.0
2017-Oct-28 05:25N 21°11' E 110°24'0 0.0
2017-Oct-28 04:49N 21°11' E 110°24'0 0.0
2017-Oct-28 04:19N 21°11' E 110°24'0 0.0
2017-Oct-28 01:01N 21°11' E 110°24'0 0.0
2017-Oct-28 00:49N 21°11' E 110°24'0 0.0
2017-Oct-28 00:25N 21°11' E 110°24'0 0.0
2017-Oct-27 23:59N 21°11' E 110°24'0 0.2
2017-Oct-27 23:29N 21°11' E 110°24'1 2.8
2017-Oct-27 23:00N 21°09' E 110°25'4 7.0
2017-Oct-27 22:30N 21°06' E 110°26'4 7.8
2017-Oct-27 22:00N 21°05' E 110°30'3 6.1
2017-Oct-27 21:30N 21°04' E 110°34'510.4
2017-Oct-27 21:00N 21°03' E 110°39'510.6
2017-Oct-27 20:30N 21°02' E 110°45'510.2
2017-Oct-27 19:59N 21°03' E 110°50'0 0.0
2017-Oct-27 06:50N 21°03' E 110°50'0 0.0
2017-Oct-27 04:41N 21°03' E 110°50'0 0.0
2017-Oct-27 03:14N 21°03' E 110°50'0 0.0
2017-Oct-27 02:50N 21°03' E 110°50'0 0.0
2017-Oct-27 02:29N 21°03' E 110°50'0 0.0
2017-Oct-27 01:53N 21°03' E 110°50'0 0.0
2017-Oct-27 00:44N 21°03' E 110°50'0 0.2
2017-Oct-27 00:26N 21°03' E 110°50'0 0.0
2017-Oct-26 23:59N 21°03' E 110°50'0 0.8
2017-Oct-26 23:30N 21°03' E 110°51'  

Dump ship's entire track history